sensor_id;sensor_type;location;lat;lon;timestamp;P1;durP1;ratioP1;P2;durP2;ratioP2
56670;SDS011;42545;50.054;8.306;2023-07-16T00:01:12;3.17;;;2.75;;
56670;SDS011;42545;50.054;8.306;2023-07-16T00:03:39;2.75;;;2.17;;
56670;SDS011;42545;50.054;8.306;2023-07-16T00:06:07;2.50;;;2.30;;
56670;SDS011;42545;50.054;8.306;2023-07-16T00:08:34;2.92;;;2.50;;
56670;SDS011;42545;50.054;8.306;2023-07-16T00:11:03;2.78;;;2.33;;
56670;SDS011;42545;50.054;8.306;2023-07-16T00:13:29;2.33;;;2.13;;
56670;SDS011;42545;50.054;8.306;2023-07-16T00:15:56;2.70;;;2.30;;
56670;SDS011;42545;50.054;8.306;2023-07-16T00:18:23;3.00;;;2.63;;
56670;SDS011;42545;50.054;8.306;2023-07-16T00:20:49;4.20;;;3.05;;
56670;SDS011;42545;50.054;8.306;2023-07-16T00:23:17;3.80;;;3.10;;
56670;SDS011;42545;50.054;8.306;2023-07-16T00:25:44;2.97;;;2.45;;
56670;SDS011;42545;50.054;8.306;2023-07-16T00:28:11;6.30;;;3.85;;
56670;SDS011;42545;50.054;8.306;2023-07-16T00:30:38;3.13;;;2.83;;
56670;SDS011;42545;50.054;8.306;2023-07-16T00:33:04;3.47;;;3.10;;
56670;SDS011;42545;50.054;8.306;2023-07-16T00:35:31;3.35;;;2.67;;
56670;SDS011;42545;50.054;8.306;2023-07-16T00:37:58;2.85;;;2.30;;
56670;SDS011;42545;50.054;8.306;2023-07-16T00:40:26;3.08;;;2.78;;
56670;SDS011;42545;50.054;8.306;2023-07-16T00:42:53;2.40;;;2.20;;
56670;SDS011;42545;50.054;8.306;2023-07-16T00:45:20;3.03;;;2.67;;
56670;SDS011;42545;50.054;8.306;2023-07-16T00:47:46;3.25;;;2.83;;
56670;SDS011;42545;50.054;8.306;2023-07-16T00:50:14;2.50;;;2.30;;
56670;SDS011;42545;50.054;8.306;2023-07-16T00:52:41;2.60;;;2.40;;
56670;SDS011;42545;50.054;8.306;2023-07-16T00:55:09;3.28;;;2.35;;
56670;SDS011;42545;50.054;8.306;2023-07-16T00:57:42;2.53;;;2.08;;
56670;SDS011;42545;50.054;8.306;2023-07-16T01:00:10;2.45;;;2.20;;
56670;SDS011;42545;50.054;8.306;2023-07-16T01:02:38;2.63;;;2.35;;
56670;SDS011;42545;50.054;8.306;2023-07-16T01:05:05;2.92;;;2.05;;
56670;SDS011;42545;50.054;8.306;2023-07-16T01:07:33;2.65;;;2.30;;
56670;SDS011;42545;50.054;8.306;2023-07-16T01:10:02;2.45;;;2.25;;
56670;SDS011;42545;50.054;8.306;2023-07-16T01:12:30;2.13;;;1.95;;
56670;SDS011;42545;50.054;8.306;2023-07-16T01:15:00;5.72;;;2.17;;
56670;SDS011;42545;50.054;8.306;2023-07-16T01:17:27;2.60;;;2.40;;
56670;SDS011;42545;50.054;8.306;2023-07-16T01:19:54;3.55;;;2.60;;
56670;SDS011;42545;50.054;8.306;2023-07-16T01:22:25;3.10;;;2.55;;
56670;SDS011;42545;50.054;8.306;2023-07-16T01:25:05;3.20;;;2.40;;
56670;SDS011;42545;50.054;8.306;2023-07-16T01:27:48;3.63;;;2.70;;
56670;SDS011;42545;50.054;8.306;2023-07-16T01:30:27;3.33;;;2.83;;
56670;SDS011;42545;50.054;8.306;2023-07-16T01:32:55;2.60;;;2.25;;
56670;SDS011;42545;50.054;8.306;2023-07-16T01:35:24;3.92;;;2.65;;
56670;SDS011;42545;50.054;8.306;2023-07-16T01:37:52;3.53;;;2.90;;
56670;SDS011;42545;50.054;8.306;2023-07-16T01:40:19;3.03;;;2.72;;
56670;SDS011;42545;50.054;8.306;2023-07-16T01:42:45;3.58;;;2.47;;
56670;SDS011;42545;50.054;8.306;2023-07-16T01:45:12;2.72;;;2.35;;
56670;SDS011;42545;50.054;8.306;2023-07-16T01:47:44;2.95;;;2.38;;
56670;SDS011;42545;50.054;8.306;2023-07-16T01:50:21;2.75;;;2.20;;
56670;SDS011;42545;50.054;8.306;2023-07-16T01:52:48;2.63;;;2.38;;
56670;SDS011;42545;50.054;8.306;2023-07-16T01:55:15;2.60;;;2.10;;
56670;SDS011;42545;50.054;8.306;2023-07-16T01:57:41;2.40;;;2.10;;
56670;SDS011;42545;50.054;8.306;2023-07-16T02:00:09;2.53;;;2.33;;
56670;SDS011;42545;50.054;8.306;2023-07-16T02:02:36;3.08;;;2.30;;
56670;SDS011;42545;50.054;8.306;2023-07-16T02:05:05;2.20;;;2.00;;
56670;SDS011;42545;50.054;8.306;2023-07-16T02:07:32;3.20;;;2.10;;
56670;SDS011;42545;50.054;8.306;2023-07-16T02:09:59;2.38;;;2.17;;
56670;SDS011;42545;50.054;8.306;2023-07-16T02:12:25;2.63;;;2.42;;
56670;SDS011;42545;50.054;8.306;2023-07-16T02:14:52;3.20;;;2.78;;
56670;SDS011;42545;50.054;8.306;2023-07-16T02:17:18;3.60;;;2.40;;
56670;SDS011;42545;50.054;8.306;2023-07-16T02:19:45;2.67;;;2.25;;
56670;SDS011;42545;50.054;8.306;2023-07-16T02:22:13;2.88;;;2.35;;
56670;SDS011;42545;50.054;8.306;2023-07-16T02:24:40;2.67;;;2.00;;
56670;SDS011;42545;50.054;8.306;2023-07-16T02:27:07;2.10;;;1.90;;
56670;SDS011;42545;50.054;8.306;2023-07-16T02:29:34;2.10;;;1.90;;
56670;SDS011;42545;50.054;8.306;2023-07-16T02:32:01;1.73;;;1.63;;
56670;SDS011;42545;50.054;8.306;2023-07-16T02:34:27;1.55;;;1.45;;
56670;SDS011;42545;50.054;8.306;2023-07-16T02:36:54;1.40;;;1.30;;
56670;SDS011;42545;50.054;8.306;2023-07-16T02:39:22;1.30;;;1.20;;
56670;SDS011;42545;50.054;8.306;2023-07-16T02:41:49;1.42;;;1.13;;
56670;SDS011;42545;50.054;8.306;2023-07-16T02:44:16;2.00;;;1.63;;
56670;SDS011;42545;50.054;8.306;2023-07-16T02:46:43;3.03;;;1.38;;
56670;SDS011;42545;50.054;8.306;2023-07-16T02:49:10;2.10;;;1.80;;
56670;SDS011;42545;50.054;8.306;2023-07-16T02:51:36;1.55;;;1.30;;
56670;SDS011;42545;50.054;8.306;2023-07-16T02:54:03;1.50;;;1.35;;
56670;SDS011;42545;50.054;8.306;2023-07-16T02:56:31;1.30;;;1.20;;
56670;SDS011;42545;50.054;8.306;2023-07-16T02:58:58;1.23;;;1.10;;
56670;SDS011;42545;50.054;8.306;2023-07-16T03:01:25;1.20;;;1.10;;
56670;SDS011;42545;50.054;8.306;2023-07-16T03:03:52;1.02;;;1.00;;
56670;SDS011;42545;50.054;8.306;2023-07-16T03:06:18;1.20;;;1.10;;
56670;SDS011;42545;50.054;8.306;2023-07-16T03:08:45;0.90;;;0.90;;
56670;SDS011;42545;50.054;8.306;2023-07-16T03:11:12;0.90;;;0.88;;
56670;SDS011;42545;50.054;8.306;2023-07-16T03:13:40;1.10;;;1.00;;
56670;SDS011;42545;50.054;8.306;2023-07-16T03:16:06;0.65;;;0.65;;
56670;SDS011;42545;50.054;8.306;2023-07-16T03:18:33;0.82;;;0.82;;
56670;SDS011;42545;50.054;8.306;2023-07-16T03:21:00;0.70;;;0.70;;
56670;SDS011;42545;50.054;8.306;2023-07-16T03:23:27;0.70;;;0.70;;
56670;SDS011;42545;50.054;8.306;2023-07-16T03:25:53;0.55;;;0.55;;
56670;SDS011;42545;50.054;8.306;2023-07-16T03:28:20;0.60;;;0.60;;
56670;SDS011;42545;50.054;8.306;2023-07-16T03:30:48;0.60;;;0.60;;
56670;SDS011;42545;50.054;8.306;2023-07-16T03:33:16;0.45;;;0.45;;
56670;SDS011;42545;50.054;8.306;2023-07-16T03:35:43;0.50;;;0.50;;
56670;SDS011;42545;50.054;8.306;2023-07-16T03:38:10;0.50;;;0.50;;
56670;SDS011;42545;50.054;8.306;2023-07-16T03:40:37;0.50;;;0.50;;
56670;SDS011;42545;50.054;8.306;2023-07-16T03:43:04;0.60;;;0.60;;
56670;SDS011;42545;50.054;8.306;2023-07-16T03:45:30;0.60;;;0.60;;
56670;SDS011;42545;50.054;8.306;2023-07-16T03:47:58;0.50;;;0.50;;
56670;SDS011;42545;50.054;8.306;2023-07-16T03:50:25;0.57;;;0.57;;
56670;SDS011;42545;50.054;8.306;2023-07-16T03:52:52;0.70;;;0.70;;
56670;SDS011;42545;50.054;8.306;2023-07-16T03:55:18;1.02;;;0.98;;
56670;SDS011;42545;50.054;8.306;2023-07-16T03:57:46;0.90;;;0.90;;
56670;SDS011;42545;50.054;8.306;2023-07-16T04:00:13;1.08;;;1.00;;
56670;SDS011;42545;50.054;8.306;2023-07-16T04:02:39;1.13;;;1.02;;
56670;SDS011;42545;50.054;8.306;2023-07-16T04:05:08;0.80;;;0.80;;
56670;SDS011;42545;50.054;8.306;2023-07-16T04:07:35;0.80;;;0.80;;
56670;SDS011;42545;50.054;8.306;2023-07-16T04:10:02;0.70;;;0.70;;
56670;SDS011;42545;50.054;8.306;2023-07-16T04:12:29;0.70;;;0.70;;
56670;SDS011;42545;50.054;8.306;2023-07-16T04:14:57;0.57;;;0.57;;
56670;SDS011;42545;50.054;8.306;2023-07-16T04:17:24;1.42;;;1.30;;
56670;SDS011;42545;50.054;8.306;2023-07-16T04:19:51;2.20;;;1.90;;
56670;SDS011;42545;50.054;8.306;2023-07-16T04:22:19;2.25;;;1.90;;
56670;SDS011;42545;50.054;8.306;2023-07-16T04:24:46;2.90;;;2.17;;
56670;SDS011;42545;50.054;8.306;2023-07-16T04:27:12;2.67;;;2.00;;
56670;SDS011;42545;50.054;8.306;2023-07-16T04:29:39;2.20;;;2.00;;
56670;SDS011;42545;50.054;8.306;2023-07-16T04:32:05;2.80;;;2.50;;
56670;SDS011;42545;50.054;8.306;2023-07-16T04:34:32;3.35;;;3.05;;
56670;SDS011;42545;50.054;8.306;2023-07-16T04:36:59;3.47;;;2.55;;
56670;SDS011;42545;50.054;8.306;2023-07-16T04:39:27;2.83;;;2.40;;
56670;SDS011;42545;50.054;8.306;2023-07-16T04:41:54;3.38;;;2.78;;
56670;SDS011;42545;50.054;8.306;2023-07-16T04:44:20;4.07;;;3.40;;
56670;SDS011;42545;50.054;8.306;2023-07-16T04:46:47;4.32;;;3.00;;
56670;SDS011;42545;50.054;8.306;2023-07-16T04:49:13;3.63;;;3.10;;
56670;SDS011;42545;50.054;8.306;2023-07-16T04:51:40;7.07;;;4.20;;
56670;SDS011;42545;50.054;8.306;2023-07-16T04:54:06;4.05;;;3.40;;
56670;SDS011;42545;50.054;8.306;2023-07-16T04:56:35;5.10;;;3.95;;
56670;SDS011;42545;50.054;8.306;2023-07-16T04:59:02;7.35;;;4.05;;
56670;SDS011;42545;50.054;8.306;2023-07-16T05:01:28;3.85;;;3.45;;
56670;SDS011;42545;50.054;8.306;2023-07-16T05:03:55;7.07;;;4.20;;
56670;SDS011;42545;50.054;8.306;2023-07-16T05:06:21;5.60;;;4.38;;
56670;SDS011;42545;50.054;8.306;2023-07-16T05:08:48;7.10;;;4.32;;
56670;SDS011;42545;50.054;8.306;2023-07-16T05:11:15;5.03;;;3.75;;
56670;SDS011;42545;50.054;8.306;2023-07-16T05:13:43;5.30;;;4.03;;
56670;SDS011;42545;50.054;8.306;2023-07-16T05:16:09;4.60;;;4.20;;
56670;SDS011;42545;50.054;8.306;2023-07-16T05:18:36;5.25;;;3.88;;
56670;SDS011;42545;50.054;8.306;2023-07-16T05:21:02;5.03;;;3.83;;
56670;SDS011;42545;50.054;8.306;2023-07-16T05:23:29;4.18;;;3.70;;
56670;SDS011;42545;50.054;8.306;2023-07-16T05:25:55;12.48;;;5.35;;
56670;SDS011;42545;50.054;8.306;2023-07-16T05:28:22;4.50;;;3.78;;
56670;SDS011;42545;50.054;8.306;2023-07-16T05:30:58;5.25;;;3.80;;
56670;SDS011;42545;50.054;8.306;2023-07-16T05:33:25;4.00;;;3.63;;
56670;SDS011;42545;50.054;8.306;2023-07-16T05:35:52;4.72;;;3.55;;
56670;SDS011;42545;50.054;8.306;2023-07-16T05:38:18;3.92;;;3.47;;
56670;SDS011;42545;50.054;8.306;2023-07-16T05:40:45;5.53;;;3.72;;
56670;SDS011;42545;50.054;8.306;2023-07-16T05:43:12;5.72;;;3.95;;
56670;SDS011;42545;50.054;8.306;2023-07-16T05:45:39;5.68;;;4.30;;
56670;SDS011;42545;50.054;8.306;2023-07-16T05:48:08;5.75;;;4.40;;
56670;SDS011;42545;50.054;8.306;2023-07-16T05:50:34;15.35;;;5.15;;
56670;SDS011;42545;50.054;8.306;2023-07-16T05:53:01;5.10;;;3.80;;
56670;SDS011;42545;50.054;8.306;2023-07-16T05:55:27;8.48;;;4.97;;
56670;SDS011;42545;50.054;8.306;2023-07-16T05:57:54;9.25;;;4.93;;
56670;SDS011;42545;50.054;8.306;2023-07-16T06:00:20;6.32;;;3.92;;
56670;SDS011;42545;50.054;8.306;2023-07-16T06:02:47;6.35;;;4.32;;
56670;SDS011;42545;50.054;8.306;2023-07-16T06:05:15;5.78;;;4.18;;
56670;SDS011;42545;50.054;8.306;2023-07-16T06:07:42;12.32;;;4.30;;
56670;SDS011;42545;50.054;8.306;2023-07-16T06:10:09;7.38;;;4.40;;
56670;SDS011;42545;50.054;8.306;2023-07-16T06:12:36;13.10;;;5.43;;
56670;SDS011;42545;50.054;8.306;2023-07-16T06:15:03;5.07;;;3.67;;
56670;SDS011;42545;50.054;8.306;2023-07-16T06:17:30;8.98;;;4.70;;
56670;SDS011;42545;50.054;8.306;2023-07-16T06:19:56;6.55;;;4.30;;
56670;SDS011;42545;50.054;8.306;2023-07-16T06:22:24;7.10;;;4.10;;
56670;SDS011;42545;50.054;8.306;2023-07-16T06:24:51;4.78;;;4.10;;
56670;SDS011;42545;50.054;8.306;2023-07-16T06:27:17;8.27;;;4.63;;
56670;SDS011;42545;50.054;8.306;2023-07-16T06:29:44;12.07;;;4.30;;
56670;SDS011;42545;50.054;8.306;2023-07-16T06:32:10;4.18;;;3.65;;
56670;SDS011;42545;50.054;8.306;2023-07-16T06:34:37;6.47;;;3.90;;
56670;SDS011;42545;50.054;8.306;2023-07-16T06:37:04;8.18;;;4.03;;
56670;SDS011;42545;50.054;8.306;2023-07-16T06:39:32;5.05;;;3.25;;
56670;SDS011;42545;50.054;8.306;2023-07-16T06:41:58;5.28;;;3.13;;
56670;SDS011;42545;50.054;8.306;2023-07-16T06:44:25;6.45;;;3.63;;
56670;SDS011;42545;50.054;8.306;2023-07-16T06:46:51;9.02;;;3.17;;
56670;SDS011;42545;50.054;8.306;2023-07-16T06:49:19;6.60;;;3.30;;
56670;SDS011;42545;50.054;8.306;2023-07-16T06:51:45;7.93;;;3.55;;
56670;SDS011;42545;50.054;8.306;2023-07-16T06:54:14;6.53;;;2.95;;
56670;SDS011;42545;50.054;8.306;2023-07-16T06:56:42;5.45;;;2.83;;
56670;SDS011;42545;50.054;8.306;2023-07-16T06:59:09;4.63;;;2.78;;
56670;SDS011;42545;50.054;8.306;2023-07-16T07:01:36;6.65;;;3.08;;
56670;SDS011;42545;50.054;8.306;2023-07-16T07:04:02;5.93;;;2.90;;
56670;SDS011;42545;50.054;8.306;2023-07-16T07:06:29;11.93;;;2.80;;
56670;SDS011;42545;50.054;8.306;2023-07-16T07:08:56;6.68;;;3.08;;
56670;SDS011;42545;50.054;8.306;2023-07-16T07:11:23;6.40;;;3.20;;
56670;SDS011;42545;50.054;8.306;2023-07-16T07:13:52;5.95;;;2.92;;
56670;SDS011;42545;50.054;8.306;2023-07-16T07:16:20;6.18;;;2.92;;
56670;SDS011;42545;50.054;8.306;2023-07-16T07:18:46;4.53;;;2.75;;
56670;SDS011;42545;50.054;8.306;2023-07-16T07:21:13;4.43;;;2.50;;
56670;SDS011;42545;50.054;8.306;2023-07-16T07:23:39;8.23;;;2.92;;
56670;SDS011;42545;50.054;8.306;2023-07-16T07:26:06;4.50;;;2.75;;
56670;SDS011;42545;50.054;8.306;2023-07-16T07:28:33;5.15;;;2.95;;
56670;SDS011;42545;50.054;8.306;2023-07-16T07:31:01;4.70;;;2.40;;
56670;SDS011;42545;50.054;8.306;2023-07-16T07:33:28;6.10;;;2.70;;
56670;SDS011;42545;50.054;8.306;2023-07-16T07:35:55;7.60;;;2.90;;
56670;SDS011;42545;50.054;8.306;2023-07-16T07:38:21;5.85;;;2.65;;
56670;SDS011;42545;50.054;8.306;2023-07-16T07:40:48;5.90;;;2.70;;
56670;SDS011;42545;50.054;8.306;2023-07-16T07:43:14;7.53;;;3.08;;
56670;SDS011;42545;50.054;8.306;2023-07-16T07:45:41;10.15;;;3.03;;
56670;SDS011;42545;50.054;8.306;2023-07-16T07:48:09;6.47;;;2.90;;
56670;SDS011;42545;50.054;8.306;2023-07-16T07:50:36;8.75;;;3.20;;
56670;SDS011;42545;50.054;8.306;2023-07-16T07:53:04;5.43;;;2.55;;
56670;SDS011;42545;50.054;8.306;2023-07-16T07:55:31;7.20;;;2.88;;
56670;SDS011;42545;50.054;8.306;2023-07-16T07:58:00;4.38;;;2.20;;
56670;SDS011;42545;50.054;8.306;2023-07-16T08:00:27;4.07;;;2.00;;
56670;SDS011;42545;50.054;8.306;2023-07-16T08:02:53;8.93;;;2.95;;
56670;SDS011;42545;50.054;8.306;2023-07-16T08:05:22;7.80;;;2.63;;
56670;SDS011;42545;50.054;8.306;2023-07-16T08:07:48;6.55;;;2.55;;
56670;SDS011;42545;50.054;8.306;2023-07-16T08:10:15;4.05;;;2.20;;
56670;SDS011;42545;50.054;8.306;2023-07-16T08:12:42;3.15;;;2.20;;
56670;SDS011;42545;50.054;8.306;2023-07-16T08:15:10;5.25;;;2.22;;
56670;SDS011;42545;50.054;8.306;2023-07-16T08:17:39;4.15;;;2.22;;
56670;SDS011;42545;50.054;8.306;2023-07-16T08:20:07;5.13;;;2.35;;
56670;SDS011;42545;50.054;8.306;2023-07-16T08:22:36;9.95;;;2.72;;
56670;SDS011;42545;50.054;8.306;2023-07-16T08:25:03;4.90;;;2.22;;
56670;SDS011;42545;50.054;8.306;2023-07-16T08:27:31;8.25;;;2.70;;
56670;SDS011;42545;50.054;8.306;2023-07-16T08:29:57;6.10;;;2.58;;
56670;SDS011;42545;50.054;8.306;2023-07-16T08:32:25;7.07;;;2.30;;
56670;SDS011;42545;50.054;8.306;2023-07-16T08:34:51;3.97;;;2.17;;
56670;SDS011;42545;50.054;8.306;2023-07-16T08:37:18;5.38;;;2.40;;
56670;SDS011;42545;50.054;8.306;2023-07-16T08:39:46;3.80;;;2.60;;
56670;SDS011;42545;50.054;8.306;2023-07-16T08:42:13;6.22;;;1.98;;
56670;SDS011;42545;50.054;8.306;2023-07-16T08:44:40;3.08;;;1.88;;
56670;SDS011;42545;50.054;8.306;2023-07-16T08:47:07;3.85;;;2.53;;
56670;SDS011;42545;50.054;8.306;2023-07-16T08:49:34;6.45;;;2.33;;
56670;SDS011;42545;50.054;8.306;2023-07-16T08:52:01;4.10;;;2.40;;
56670;SDS011;42545;50.054;8.306;2023-07-16T08:54:28;4.18;;;2.20;;
56670;SDS011;42545;50.054;8.306;2023-07-16T08:56:57;7.05;;;2.13;;
56670;SDS011;42545;50.054;8.306;2023-07-16T08:59:24;4.55;;;2.10;;
56670;SDS011;42545;50.054;8.306;2023-07-16T09:01:52;5.97;;;2.53;;
56670;SDS011;42545;50.054;8.306;2023-07-16T09:04:19;6.25;;;2.25;;
56670;SDS011;42545;50.054;8.306;2023-07-16T09:06:46;6.60;;;2.55;;
56670;SDS011;42545;50.054;8.306;2023-07-16T09:09:19;7.47;;;2.78;;
56670;SDS011;42545;50.054;8.306;2023-07-16T09:11:47;7.22;;;2.47;;
56670;SDS011;42545;50.054;8.306;2023-07-16T09:14:19;10.70;;;3.10;;
56670;SDS011;42545;50.054;8.306;2023-07-16T09:16:48;8.82;;;2.60;;
56670;SDS011;42545;50.054;8.306;2023-07-16T09:19:24;5.13;;;2.22;;
56670;SDS011;42545;50.054;8.306;2023-07-16T09:21:52;5.40;;;2.20;;
56670;SDS011;42545;50.054;8.306;2023-07-16T09:24:19;5.40;;;2.40;;
56670;SDS011;42545;50.054;8.306;2023-07-16T09:26:49;7.85;;;2.58;;
56670;SDS011;42545;50.054;8.306;2023-07-16T09:29:18;5.32;;;2.58;;
56670;SDS011;42545;50.054;8.306;2023-07-16T09:31:53;6.35;;;2.88;;
56670;SDS011;42545;50.054;8.306;2023-07-16T09:34:20;5.28;;;2.20;;
56670;SDS011;42545;50.054;8.306;2023-07-16T09:36:50;6.28;;;2.75;;
56670;SDS011;42545;50.054;8.306;2023-07-16T09:39:21;7.60;;;2.70;;
56670;SDS011;42545;50.054;8.306;2023-07-16T09:41:49;7.47;;;2.47;;
56670;SDS011;42545;50.054;8.306;2023-07-16T09:44:20;6.22;;;2.45;;
56670;SDS011;42545;50.054;8.306;2023-07-16T09:46:46;3.38;;;2.20;;
56670;SDS011;42545;50.054;8.306;2023-07-16T09:49:14;5.03;;;3.40;;
56670;SDS011;42545;50.054;8.306;2023-07-16T09:51:42;5.57;;;2.45;;
56670;SDS011;42545;50.054;8.306;2023-07-16T09:54:13;9.68;;;6.95;;
56670;SDS011;42545;50.054;8.306;2023-07-16T09:56:44;15.70;;;11.05;;
56670;SDS011;42545;50.054;8.306;2023-07-16T09:59:19;10.55;;;6.97;;
56670;SDS011;42545;50.054;8.306;2023-07-16T10:01:52;6.68;;;3.90;;
56670;SDS011;42545;50.054;8.306;2023-07-16T10:04:20;5.25;;;4.35;;
56670;SDS011;42545;50.054;8.306;2023-07-16T10:06:51;13.45;;;9.35;;
56670;SDS011;42545;50.054;8.306;2023-07-16T10:09:31;6.95;;;3.97;;
56670;SDS011;42545;50.054;8.306;2023-07-16T10:12:11;5.10;;;3.63;;
56670;SDS011;42545;50.054;8.306;2023-07-16T10:14:45;7.30;;;4.03;;
56670;SDS011;42545;50.054;8.306;2023-07-16T10:17:16;8.23;;;3.17;;
56670;SDS011;42545;50.054;8.306;2023-07-16T10:19:56;6.63;;;2.75;;
56670;SDS011;42545;50.054;8.306;2023-07-16T10:22:32;7.82;;;2.88;;
56670;SDS011;42545;50.054;8.306;2023-07-16T10:25:23;6.68;;;3.22;;
56670;SDS011;42545;50.054;8.306;2023-07-16T10:27:57;5.15;;;2.83;;
56670;SDS011;42545;50.054;8.306;2023-07-16T10:30:29;6.88;;;3.03;;
56670;SDS011;42545;50.054;8.306;2023-07-16T10:32:58;2.53;;;1.70;;
56670;SDS011;42545;50.054;8.306;2023-07-16T10:35:40;4.50;;;2.47;;
56670;SDS011;42545;50.054;8.306;2023-07-16T10:38:07;6.40;;;2.85;;
56670;SDS011;42545;50.054;8.306;2023-07-16T10:40:41;6.53;;;3.10;;
56670;SDS011;42545;50.054;8.306;2023-07-16T10:43:12;10.05;;;3.40;;
56670;SDS011;42545;50.054;8.306;2023-07-16T10:45:41;8.88;;;3.42;;
56670;SDS011;42545;50.054;8.306;2023-07-16T10:48:23;5.03;;;2.80;;
56670;SDS011;42545;50.054;8.306;2023-07-16T10:50:54;4.25;;;2.63;;
56670;SDS011;42545;50.054;8.306;2023-07-16T10:53:23;4.32;;;2.30;;
56670;SDS011;42545;50.054;8.306;2023-07-16T10:55:51;6.90;;;2.53;;
56670;SDS011;42545;50.054;8.306;2023-07-16T10:58:18;3.67;;;2.38;;
56670;SDS011;42545;50.054;8.306;2023-07-16T11:00:46;3.83;;;2.15;;
56670;SDS011;42545;50.054;8.306;2023-07-16T11:03:17;5.80;;;2.60;;
56670;SDS011;42545;50.054;8.306;2023-07-16T11:05:53;4.57;;;2.15;;
56670;SDS011;42545;50.054;8.306;2023-07-16T11:08:31;5.80;;;2.73;;
56670;SDS011;42545;50.054;8.306;2023-07-16T11:11:11;3.97;;;2.38;;
56670;SDS011;42545;50.054;8.306;2023-07-16T11:13:43;2.85;;;1.92;;
56670;SDS011;42545;50.054;8.306;2023-07-16T11:16:11;3.28;;;2.22;;
56670;SDS011;42545;50.054;8.306;2023-07-16T11:18:38;4.43;;;2.20;;
56670;SDS011;42545;50.054;8.306;2023-07-16T11:21:09;3.78;;;2.13;;
56670;SDS011;42545;50.054;8.306;2023-07-16T11:23:36;4.43;;;2.22;;
56670;SDS011;42545;50.054;8.306;2023-07-16T11:26:07;4.97;;;3.53;;
56670;SDS011;42545;50.054;8.306;2023-07-16T11:28:38;4.55;;;2.13;;
56670;SDS011;42545;50.054;8.306;2023-07-16T11:31:12;4.05;;;2.20;;
56670;SDS011;42545;50.054;8.306;2023-07-16T11:33:41;3.78;;;2.00;;
56670;SDS011;42545;50.054;8.306;2023-07-16T11:36:10;5.35;;;2.40;;
56670;SDS011;42545;50.054;8.306;2023-07-16T11:38:37;3.45;;;2.22;;
56670;SDS011;42545;50.054;8.306;2023-07-16T11:41:10;4.10;;;2.40;;
56670;SDS011;42545;50.054;8.306;2023-07-16T11:43:40;5.00;;;2.63;;
56670;SDS011;42545;50.054;8.306;2023-07-16T11:46:17;3.33;;;2.45;;
56670;SDS011;42545;50.054;8.306;2023-07-16T11:48:44;4.25;;;2.05;;
56670;SDS011;42545;50.054;8.306;2023-07-16T11:51:10;3.55;;;2.10;;
56670;SDS011;42545;50.054;8.306;2023-07-16T11:53:39;6.00;;;2.90;;
56670;SDS011;42545;50.054;8.306;2023-07-16T11:56:06;5.47;;;2.90;;
56670;SDS011;42545;50.054;8.306;2023-07-16T11:58:32;5.20;;;2.85;;
56670;SDS011;42545;50.054;8.306;2023-07-16T12:00:59;10.27;;;4.40;;
56670;SDS011;42545;50.054;8.306;2023-07-16T12:03:27;6.00;;;3.40;;
56670;SDS011;42545;50.054;8.306;2023-07-16T12:05:54;4.90;;;3.08;;
56670;SDS011;42545;50.054;8.306;2023-07-16T12:08:22;4.32;;;2.53;;
56670;SDS011;42545;50.054;8.306;2023-07-16T12:10:51;4.70;;;2.60;;
56670;SDS011;42545;50.054;8.306;2023-07-16T12:13:29;7.45;;;3.60;;
56670;SDS011;42545;50.054;8.306;2023-07-16T12:18:31;4.45;;;3.00;;
56670;SDS011;42545;50.054;8.306;2023-07-16T12:21:04;3.80;;;2.92;;
56670;SDS011;42545;50.054;8.306;2023-07-16T12:23:31;4.90;;;2.95;;
56670;SDS011;42545;50.054;8.306;2023-07-16T12:25:58;4.50;;;2.90;;
56670;SDS011;42545;50.054;8.306;2023-07-16T12:28:24;10.88;;;4.18;;
56670;SDS011;42545;50.054;8.306;2023-07-16T12:30:51;6.25;;;3.65;;
56670;SDS011;42545;50.054;8.306;2023-07-16T12:33:18;5.15;;;3.00;;
56670;SDS011;42545;50.054;8.306;2023-07-16T12:35:46;5.07;;;3.17;;
56670;SDS011;42545;50.054;8.306;2023-07-16T12:38:13;4.78;;;2.90;;
56670;SDS011;42545;50.054;8.306;2023-07-16T12:40:42;7.17;;;3.60;;
56670;SDS011;42545;50.054;8.306;2023-07-16T12:43:09;5.22;;;2.95;;
56670;SDS011;42545;50.054;8.306;2023-07-16T12:45:35;5.00;;;2.80;;
56670;SDS011;42545;50.054;8.306;2023-07-16T12:48:02;7.60;;;3.10;;
56670;SDS011;42545;50.054;8.306;2023-07-16T12:50:30;4.15;;;3.08;;
56670;SDS011;42545;50.054;8.306;2023-07-16T12:52:58;5.82;;;3.25;;
56670;SDS011;42545;50.054;8.306;2023-07-16T12:55:24;8.15;;;3.78;;
56670;SDS011;42545;50.054;8.306;2023-07-16T12:57:51;7.30;;;3.60;;
56670;SDS011;42545;50.054;8.306;2023-07-16T13:00:18;5.30;;;3.20;;
56670;SDS011;42545;50.054;8.306;2023-07-16T13:02:46;7.78;;;3.90;;
56670;SDS011;42545;50.054;8.306;2023-07-16T13:05:12;5.28;;;3.30;;
56670;SDS011;42545;50.054;8.306;2023-07-16T13:07:38;5.53;;;3.60;;
56670;SDS011;42545;50.054;8.306;2023-07-16T13:10:08;5.63;;;3.40;;
56670;SDS011;42545;50.054;8.306;2023-07-16T13:12:36;5.82;;;3.30;;
56670;SDS011;42545;50.054;8.306;2023-07-16T13:15:03;5.07;;;3.40;;
56670;SDS011;42545;50.054;8.306;2023-07-16T13:17:30;6.82;;;3.25;;
56670;SDS011;42545;50.054;8.306;2023-07-16T13:19:57;4.70;;;3.20;;
56670;SDS011;42545;50.054;8.306;2023-07-16T13:22:23;4.07;;;3.05;;
56670;SDS011;42545;50.054;8.306;2023-07-16T13:24:50;6.00;;;3.63;;
56670;SDS011;42545;50.054;8.306;2023-07-16T13:27:22;5.10;;;3.30;;
56670;SDS011;42545;50.054;8.306;2023-07-16T13:29:49;5.97;;;3.58;;
56670;SDS011;42545;50.054;8.306;2023-07-16T13:32:16;7.03;;;3.90;;
56670;SDS011;42545;50.054;8.306;2023-07-16T13:34:44;4.72;;;3.13;;
56670;SDS011;42545;50.054;8.306;2023-07-16T13:37:11;3.67;;;2.80;;
56670;SDS011;42545;50.054;8.306;2023-07-16T13:39:39;4.57;;;3.30;;
56670;SDS011;42545;50.054;8.306;2023-07-16T13:42:15;5.93;;;3.35;;
56670;SDS011;42545;50.054;8.306;2023-07-16T13:44:47;5.90;;;3.40;;
56670;SDS011;42545;50.054;8.306;2023-07-16T13:47:13;3.50;;;3.10;;
56670;SDS011;42545;50.054;8.306;2023-07-16T13:49:40;4.28;;;3.08;;
56670;SDS011;42545;50.054;8.306;2023-07-16T13:52:08;5.25;;;3.35;;
56670;SDS011;42545;50.054;8.306;2023-07-16T13:54:34;7.25;;;3.05;;
56670;SDS011;42545;50.054;8.306;2023-07-16T13:57:03;7.78;;;3.35;;
56670;SDS011;42545;50.054;8.306;2023-07-16T13:59:31;5.03;;;2.78;;
56670;SDS011;42545;50.054;8.306;2023-07-16T14:02:00;4.80;;;3.17;;
56670;SDS011;42545;50.054;8.306;2023-07-16T14:04:28;8.95;;;4.43;;
56670;SDS011;42545;50.054;8.306;2023-07-16T14:06:55;5.05;;;3.50;;
56670;SDS011;42545;50.054;8.306;2023-07-16T14:09:27;4.18;;;3.03;;
56670;SDS011;42545;50.054;8.306;2023-07-16T14:11:57;5.10;;;3.05;;
56670;SDS011;42545;50.054;8.306;2023-07-16T14:14:25;4.53;;;3.10;;
56670;SDS011;42545;50.054;8.306;2023-07-16T14:16:52;4.63;;;3.22;;
56670;SDS011;42545;50.054;8.306;2023-07-16T14:19:24;5.15;;;3.45;;
56670;SDS011;42545;50.054;8.306;2023-07-16T14:21:53;4.55;;;3.08;;
56670;SDS011;42545;50.054;8.306;2023-07-16T14:24:20;5.70;;;3.55;;
56670;SDS011;42545;50.054;8.306;2023-07-16T14:26:46;4.88;;;3.30;;
56670;SDS011;42545;50.054;8.306;2023-07-16T14:29:13;5.50;;;3.63;;
56670;SDS011;42545;50.054;8.306;2023-07-16T14:31:40;6.43;;;3.67;;
56670;SDS011;42545;50.054;8.306;2023-07-16T14:34:08;6.38;;;3.28;;
56670;SDS011;42545;50.054;8.306;2023-07-16T14:36:36;6.88;;;4.05;;
56670;SDS011;42545;50.054;8.306;2023-07-16T14:39:03;4.82;;;3.63;;
56670;SDS011;42545;50.054;8.306;2023-07-16T14:41:30;6.68;;;4.10;;
56670;SDS011;42545;50.054;8.306;2023-07-16T14:43:57;5.18;;;3.83;;
56670;SDS011;42545;50.054;8.306;2023-07-16T14:46:24;4.47;;;3.30;;
56670;SDS011;42545;50.054;8.306;2023-07-16T14:48:50;5.50;;;3.65;;
56670;SDS011;42545;50.054;8.306;2023-07-16T14:51:22;3.78;;;2.90;;
56670;SDS011;42545;50.054;8.306;2023-07-16T14:53:58;5.93;;;3.60;;
56670;SDS011;42545;50.054;8.306;2023-07-16T14:56:25;6.38;;;3.50;;